Portada
METAR-TAF:

METAR-TAF

Aeropuertos :

Taskent, Uzbekistán

Aeropuerto Internacional de Taskent

latitud: 41-16N, longitud: 069-16E, altitud: 489 m

Observación

El informe se hizo hace 44 minutos, a las 22:30 UTC
Viento 8 kt del este
Temperatura 11°C
Humedad 62%
Presión 1011 hPa
Visibilidad 10 km o más
sin nubes por debajo de 1500 m y sin presencia de cumulonimbus.

METAR: UTTT 212230Z 08008KT CAVOK 11/04 Q1011 R08R/CLRD70 NOSIG

Hora: 04:14 (23:14 UTC)

Pronóstico

El informe se hizo hace 6 horas y 14 minutos, a las 17:00 UTC
Pronóstico válido del 21 a las 18 UTC al 22 a las 18 UTC
Viento 12 kt del este
Visibilidad: 7000 m
Temporalmente
del 21 a las 18 UTC al 22 a las 04 UTC
Visibilidad: 3000 m
neblina, humo
Temporalmente
del 22 a las 06 UTC al 22 a las 16 UTC
Viento 15 kt del sur-suroeste con ráfagas de 22 kt

TAF: UTTT 211700Z 2118/2218 08012KT 7000 NSC TEMPO 2118/2204 3000 BR FU TEMPO 2206/2216 20015G22KT

Observaciones y pronósticos meteorológicos de más de 4000 aeropuertos (mensajes METAR y TAF).

Los puntos amarillos y rojos representan las estaciones disponibles.

Ponga el ratón en el punto deseado para ver el nombre de la estación.

Haga clic para ver las observaciones y los pronósticos meteorológicos.

Para cambiar el mapa : haga clic en los botones verdes con una cruz de color negro para hacer un zoom, en el botón verde con un guión para alejar o en las flechas verdes para mapas adyacentes.


METAR-TAF: